sensor_id;sensor_type;location;lat;lon;timestamp;P1;durP1;ratioP1;P2;durP2;ratioP2
68718;SDS011;55696;52.138;5.444;2023-07-22T00:00:39;13.05;;;5.80;;
68718;SDS011;55696;52.138;5.444;2023-07-22T00:03:06;13.73;;;7.32;;
68718;SDS011;55696;52.138;5.444;2023-07-22T00:05:33;12.45;;;6.07;;
68718;SDS011;55696;52.138;5.444;2023-07-22T00:08:00;12.00;;;6.22;;
68718;SDS011;55696;52.138;5.444;2023-07-22T00:10:27;13.33;;;6.30;;
68718;SDS011;55696;52.138;5.444;2023-07-22T00:12:53;12.18;;;5.80;;
68718;SDS011;55696;52.138;5.444;2023-07-22T00:15:20;12.45;;;6.32;;
68718;SDS011;55696;52.138;5.444;2023-07-22T00:17:50;12.70;;;6.38;;
68718;SDS011;55696;52.138;5.444;2023-07-22T00:20:18;11.73;;;6.57;;
68718;SDS011;55696;52.138;5.444;2023-07-22T00:22:46;11.33;;;6.27;;
68718;SDS011;55696;52.138;5.444;2023-07-22T00:25:14;10.88;;;5.53;;
68718;SDS011;55696;52.138;5.444;2023-07-22T00:27:41;15.30;;;6.72;;
68718;SDS011;55696;52.138;5.444;2023-07-22T00:30:08;12.77;;;6.88;;
68718;SDS011;55696;52.138;5.444;2023-07-22T00:32:36;12.52;;;6.38;;
68718;SDS011;55696;52.138;5.444;2023-07-22T00:35:07;10.93;;;6.23;;
68718;SDS011;55696;52.138;5.444;2023-07-22T00:37:35;14.00;;;6.63;;
68718;SDS011;55696;52.138;5.444;2023-07-22T00:40:02;12.05;;;6.50;;
68718;SDS011;55696;52.138;5.444;2023-07-22T00:42:38;14.30;;;6.70;;
68718;SDS011;55696;52.138;5.444;2023-07-22T00:45:06;12.25;;;6.50;;
68718;SDS011;55696;52.138;5.444;2023-07-22T00:47:33;13.07;;;6.90;;
68718;SDS011;55696;52.138;5.444;2023-07-22T00:50:02;11.38;;;6.47;;
68718;SDS011;55696;52.138;5.444;2023-07-22T00:52:30;14.38;;;7.47;;
68718;SDS011;55696;52.138;5.444;2023-07-22T00:54:56;12.05;;;6.65;;
68718;SDS011;55696;52.138;5.444;2023-07-22T00:57:26;12.48;;;6.68;;
68718;SDS011;55696;52.138;5.444;2023-07-22T00:59:53;15.50;;;7.73;;
68718;SDS011;55696;52.138;5.444;2023-07-22T01:02:21;16.25;;;6.95;;
68718;SDS011;55696;52.138;5.444;2023-07-22T01:04:50;13.15;;;6.55;;
68718;SDS011;55696;52.138;5.444;2023-07-22T01:07:18;12.38;;;6.40;;
68718;SDS011;55696;52.138;5.444;2023-07-22T01:09:45;13.68;;;6.85;;
68718;SDS011;55696;52.138;5.444;2023-07-22T01:12:12;13.67;;;7.27;;
68718;SDS011;55696;52.138;5.444;2023-07-22T01:14:40;13.30;;;7.45;;
68718;SDS011;55696;52.138;5.444;2023-07-22T01:17:08;14.05;;;6.95;;
68718;SDS011;55696;52.138;5.444;2023-07-22T01:19:36;15.40;;;7.32;;
68718;SDS011;55696;52.138;5.444;2023-07-22T01:22:04;16.45;;;7.53;;
68718;SDS011;55696;52.138;5.444;2023-07-22T01:24:34;12.83;;;6.60;;
68718;SDS011;55696;52.138;5.444;2023-07-22T01:27:02;16.58;;;7.22;;
68718;SDS011;55696;52.138;5.444;2023-07-22T01:29:29;13.43;;;6.90;;
68718;SDS011;55696;52.138;5.444;2023-07-22T01:31:56;14.05;;;6.68;;
68718;SDS011;55696;52.138;5.444;2023-07-22T01:34:23;16.60;;;7.93;;
68718;SDS011;55696;52.138;5.444;2023-07-22T01:36:51;14.33;;;7.00;;
68718;SDS011;55696;52.138;5.444;2023-07-22T01:39:18;15.90;;;7.50;;
68718;SDS011;55696;52.138;5.444;2023-07-22T01:41:45;15.07;;;7.45;;
68718;SDS011;55696;52.138;5.444;2023-07-22T01:44:12;16.67;;;8.25;;
68718;SDS011;55696;52.138;5.444;2023-07-22T01:46:40;15.00;;;7.95;;
68718;SDS011;55696;52.138;5.444;2023-07-22T01:49:10;14.77;;;7.27;;
68718;SDS011;55696;52.138;5.444;2023-07-22T01:51:39;16.63;;;7.95;;
68718;SDS011;55696;52.138;5.444;2023-07-22T01:54:09;15.85;;;8.07;;
68718;SDS011;55696;52.138;5.444;2023-07-22T01:56:37;19.10;;;8.60;;
68718;SDS011;55696;52.138;5.444;2023-07-22T01:59:04;17.00;;;8.25;;
68718;SDS011;55696;52.138;5.444;2023-07-22T02:01:32;16.73;;;8.37;;
68718;SDS011;55696;52.138;5.444;2023-07-22T02:03:59;16.67;;;8.68;;
68718;SDS011;55696;52.138;5.444;2023-07-22T02:06:26;17.23;;;8.18;;
68718;SDS011;55696;52.138;5.444;2023-07-22T02:08:54;17.65;;;8.50;;
68718;SDS011;55696;52.138;5.444;2023-07-22T02:11:22;16.02;;;9.02;;
68718;SDS011;55696;52.138;5.444;2023-07-22T02:13:49;19.40;;;9.10;;
68718;SDS011;55696;52.138;5.444;2023-07-22T02:16:16;16.77;;;8.50;;
68718;SDS011;55696;52.138;5.444;2023-07-22T02:18:43;17.63;;;8.63;;
68718;SDS011;55696;52.138;5.444;2023-07-22T02:21:10;17.95;;;8.48;;
68718;SDS011;55696;52.138;5.444;2023-07-22T02:23:37;16.40;;;8.43;;
68718;SDS011;55696;52.138;5.444;2023-07-22T02:26:03;18.17;;;8.93;;
68718;SDS011;55696;52.138;5.444;2023-07-22T02:28:30;19.58;;;8.90;;
68718;SDS011;55696;52.138;5.444;2023-07-22T02:31:00;18.00;;;8.88;;
68718;SDS011;55696;52.138;5.444;2023-07-22T02:33:31;17.45;;;9.05;;
68718;SDS011;55696;52.138;5.444;2023-07-22T02:35:58;18.25;;;8.45;;
68718;SDS011;55696;52.138;5.444;2023-07-22T02:38:25;19.43;;;8.30;;
68718;SDS011;55696;52.138;5.444;2023-07-22T02:40:51;19.45;;;9.13;;
68718;SDS011;55696;52.138;5.444;2023-07-22T02:43:18;17.50;;;8.82;;
68718;SDS011;55696;52.138;5.444;2023-07-22T02:45:45;19.10;;;9.27;;
68718;SDS011;55696;52.138;5.444;2023-07-22T02:48:12;18.05;;;9.20;;
68718;SDS011;55696;52.138;5.444;2023-07-22T02:50:39;19.17;;;9.03;;
68718;SDS011;55696;52.138;5.444;2023-07-22T02:53:07;19.20;;;9.10;;
68718;SDS011;55696;52.138;5.444;2023-07-22T02:55:33;16.63;;;9.70;;
68718;SDS011;55696;52.138;5.444;2023-07-22T02:58:00;21.25;;;8.88;;
68718;SDS011;55696;52.138;5.444;2023-07-22T03:00:27;20.15;;;9.40;;
68718;SDS011;55696;52.138;5.444;2023-07-22T03:02:55;20.37;;;8.67;;
68718;SDS011;55696;52.138;5.444;2023-07-22T03:05:27;19.75;;;8.75;;
68718;SDS011;55696;52.138;5.444;2023-07-22T03:07:56;17.75;;;9.00;;
68718;SDS011;55696;52.138;5.444;2023-07-22T03:10:23;19.80;;;8.32;;
68718;SDS011;55696;52.138;5.444;2023-07-22T03:12:55;16.27;;;8.48;;
68718;SDS011;55696;52.138;5.444;2023-07-22T03:15:23;15.13;;;7.57;;
68718;SDS011;55696;52.138;5.444;2023-07-22T03:17:53;19.13;;;9.38;;
68718;SDS011;55696;52.138;5.444;2023-07-22T03:20:20;16.52;;;8.70;;
68718;SDS011;55696;52.138;5.444;2023-07-22T03:22:48;16.70;;;8.60;;
68718;SDS011;55696;52.138;5.444;2023-07-22T03:25:15;18.38;;;8.25;;
68718;SDS011;55696;52.138;5.444;2023-07-22T03:27:46;20.27;;;8.90;;
68718;SDS011;55696;52.138;5.444;2023-07-22T03:30:13;20.92;;;8.95;;
68718;SDS011;55696;52.138;5.444;2023-07-22T03:32:43;18.48;;;9.45;;
68718;SDS011;55696;52.138;5.444;2023-07-22T03:35:10;19.02;;;9.75;;
68718;SDS011;55696;52.138;5.444;2023-07-22T03:37:38;20.67;;;10.65;;
68718;SDS011;55696;52.138;5.444;2023-07-22T03:40:06;23.97;;;10.77;;
68718;SDS011;55696;52.138;5.444;2023-07-22T03:42:47;17.25;;;8.60;;
68718;SDS011;55696;52.138;5.444;2023-07-22T03:45:15;23.05;;;10.40;;
68718;SDS011;55696;52.138;5.444;2023-07-22T03:47:46;21.13;;;9.60;;
68718;SDS011;55696;52.138;5.444;2023-07-22T03:50:16;22.00;;;10.63;;
68718;SDS011;55696;52.138;5.444;2023-07-22T03:52:43;18.83;;;9.83;;
68718;SDS011;55696;52.138;5.444;2023-07-22T03:55:10;21.85;;;10.50;;
68718;SDS011;55696;52.138;5.444;2023-07-22T03:57:37;21.35;;;10.32;;
68718;SDS011;55696;52.138;5.444;2023-07-22T04:00:04;21.35;;;10.65;;
68718;SDS011;55696;52.138;5.444;2023-07-22T04:02:37;19.92;;;9.68;;
68718;SDS011;55696;52.138;5.444;2023-07-22T04:05:04;18.40;;;9.47;;
68718;SDS011;55696;52.138;5.444;2023-07-22T04:07:32;19.95;;;10.63;;
68718;SDS011;55696;52.138;5.444;2023-07-22T04:09:58;17.70;;;9.07;;
68718;SDS011;55696;52.138;5.444;2023-07-22T04:12:25;21.75;;;10.15;;
68718;SDS011;55696;52.138;5.444;2023-07-22T04:14:52;22.85;;;10.70;;
68718;SDS011;55696;52.138;5.444;2023-07-22T04:17:19;21.17;;;9.93;;
68718;SDS011;55696;52.138;5.444;2023-07-22T04:19:46;18.42;;;9.70;;
68718;SDS011;55696;52.138;5.444;2023-07-22T04:22:13;21.88;;;10.00;;
68718;SDS011;55696;52.138;5.444;2023-07-22T04:24:39;26.05;;;10.18;;
68718;SDS011;55696;52.138;5.444;2023-07-22T04:27:06;21.83;;;10.45;;
68718;SDS011;55696;52.138;5.444;2023-07-22T04:29:34;20.07;;;10.10;;
68718;SDS011;55696;52.138;5.444;2023-07-22T04:32:05;21.90;;;9.93;;
68718;SDS011;55696;52.138;5.444;2023-07-22T04:34:32;19.55;;;10.52;;
68718;SDS011;55696;52.138;5.444;2023-07-22T04:36:59;22.95;;;10.63;;
68718;SDS011;55696;52.138;5.444;2023-07-22T04:39:27;21.48;;;10.13;;
68718;SDS011;55696;52.138;5.444;2023-07-22T04:41:54;20.03;;;9.80;;
68718;SDS011;55696;52.138;5.444;2023-07-22T04:44:21;19.42;;;9.45;;
68718;SDS011;55696;52.138;5.444;2023-07-22T04:46:48;22.95;;;10.50;;
68718;SDS011;55696;52.138;5.444;2023-07-22T04:49:15;21.08;;;11.02;;
68718;SDS011;55696;52.138;5.444;2023-07-22T04:51:47;22.90;;;10.48;;
68718;SDS011;55696;52.138;5.444;2023-07-22T04:54:14;21.60;;;10.70;;
68718;SDS011;55696;52.138;5.444;2023-07-22T04:56:42;22.65;;;10.30;;
68718;SDS011;55696;52.138;5.444;2023-07-22T04:59:09;22.45;;;11.30;;
68718;SDS011;55696;52.138;5.444;2023-07-22T05:01:36;25.52;;;10.43;;
68718;SDS011;55696;52.138;5.444;2023-07-22T05:04:03;23.70;;;11.10;;
68718;SDS011;55696;52.138;5.444;2023-07-22T05:06:31;27.03;;;12.37;;
68718;SDS011;55696;52.138;5.444;2023-07-22T05:08:59;23.67;;;10.70;;
68718;SDS011;55696;52.138;5.444;2023-07-22T05:11:26;27.05;;;10.85;;
68718;SDS011;55696;52.138;5.444;2023-07-22T05:13:53;23.65;;;10.70;;
68718;SDS011;55696;52.138;5.444;2023-07-22T05:16:20;23.10;;;11.18;;
68718;SDS011;55696;52.138;5.444;2023-07-22T05:18:47;21.60;;;10.27;;
68718;SDS011;55696;52.138;5.444;2023-07-22T05:21:14;23.17;;;10.82;;
68718;SDS011;55696;52.138;5.444;2023-07-22T05:23:41;19.48;;;9.85;;
68718;SDS011;55696;52.138;5.444;2023-07-22T05:26:08;23.95;;;11.13;;
68718;SDS011;55696;52.138;5.444;2023-07-22T05:28:35;24.70;;;10.90;;
68718;SDS011;55696;52.138;5.444;2023-07-22T05:31:02;25.07;;;11.13;;
68718;SDS011;55696;52.138;5.444;2023-07-22T05:33:29;23.42;;;10.93;;
68718;SDS011;55696;52.138;5.444;2023-07-22T05:35:56;24.27;;;10.75;;
68718;SDS011;55696;52.138;5.444;2023-07-22T05:38:23;29.70;;;10.98;;
68718;SDS011;55696;52.138;5.444;2023-07-22T05:40:51;26.10;;;11.60;;
68718;SDS011;55696;52.138;5.444;2023-07-22T05:43:19;25.23;;;11.07;;
68718;SDS011;55696;52.138;5.444;2023-07-22T05:45:46;23.20;;;11.18;;
68718;SDS011;55696;52.138;5.444;2023-07-22T05:48:13;25.33;;;10.90;;
68718;SDS011;55696;52.138;5.444;2023-07-22T05:50:40;26.23;;;11.48;;
68718;SDS011;55696;52.138;5.444;2023-07-22T05:53:07;30.20;;;13.57;;
68718;SDS011;55696;52.138;5.444;2023-07-22T05:55:34;29.03;;;12.33;;
68718;SDS011;55696;52.138;5.444;2023-07-22T05:58:02;26.60;;;12.40;;
68718;SDS011;55696;52.138;5.444;2023-07-22T06:00:32;32.75;;;12.30;;
68718;SDS011;55696;52.138;5.444;2023-07-22T06:02:59;27.15;;;12.82;;
68718;SDS011;55696;52.138;5.444;2023-07-22T06:05:27;27.05;;;12.07;;
68718;SDS011;55696;52.138;5.444;2023-07-22T06:07:53;25.57;;;12.20;;
68718;SDS011;55696;52.138;5.444;2023-07-22T06:10:21;27.88;;;13.05;;
68718;SDS011;55696;52.138;5.444;2023-07-22T06:12:48;28.92;;;13.20;;
68718;SDS011;55696;52.138;5.444;2023-07-22T06:15:15;25.52;;;11.93;;
68718;SDS011;55696;52.138;5.444;2023-07-22T06:17:42;25.08;;;11.82;;
68718;SDS011;55696;52.138;5.444;2023-07-22T06:20:09;32.37;;;12.37;;
68718;SDS011;55696;52.138;5.444;2023-07-22T06:22:37;30.33;;;12.77;;
68718;SDS011;55696;52.138;5.444;2023-07-22T06:25:04;28.42;;;12.65;;
68718;SDS011;55696;52.138;5.444;2023-07-22T06:27:32;28.98;;;12.35;;
68718;SDS011;55696;52.138;5.444;2023-07-22T06:29:59;26.75;;;12.43;;
68718;SDS011;55696;52.138;5.444;2023-07-22T06:32:26;26.07;;;13.10;;
68718;SDS011;55696;52.138;5.444;2023-07-22T06:34:56;30.30;;;12.60;;
68718;SDS011;55696;52.138;5.444;2023-07-22T06:37:23;24.17;;;11.63;;
68718;SDS011;55696;52.138;5.444;2023-07-22T06:39:51;23.80;;;12.50;;
68718;SDS011;55696;52.138;5.444;2023-07-22T06:42:18;29.80;;;13.73;;
68718;SDS011;55696;52.138;5.444;2023-07-22T06:44:44;26.87;;;12.53;;
68718;SDS011;55696;52.138;5.444;2023-07-22T06:47:11;27.60;;;11.55;;
68718;SDS011;55696;52.138;5.444;2023-07-22T06:49:39;26.52;;;12.60;;
68718;SDS011;55696;52.138;5.444;2023-07-22T06:52:08;26.10;;;11.95;;
68718;SDS011;55696;52.138;5.444;2023-07-22T06:54:35;28.88;;;13.00;;
68718;SDS011;55696;52.138;5.444;2023-07-22T06:57:02;26.17;;;11.87;;
68718;SDS011;55696;52.138;5.444;2023-07-22T06:59:30;27.15;;;12.80;;
68718;SDS011;55696;52.138;5.444;2023-07-22T07:01:56;27.40;;;12.95;;
68718;SDS011;55696;52.138;5.444;2023-07-22T07:04:23;28.20;;;12.93;;
68718;SDS011;55696;52.138;5.444;2023-07-22T07:06:50;24.75;;;12.38;;
68718;SDS011;55696;52.138;5.444;2023-07-22T07:09:17;23.07;;;11.73;;
68718;SDS011;55696;52.138;5.444;2023-07-22T07:11:44;23.58;;;12.18;;
68718;SDS011;55696;52.138;5.444;2023-07-22T07:14:11;27.02;;;13.73;;
68718;SDS011;55696;52.138;5.444;2023-07-22T07:16:39;27.75;;;13.48;;
68718;SDS011;55696;52.138;5.444;2023-07-22T07:19:06;24.25;;;12.18;;
68718;SDS011;55696;52.138;5.444;2023-07-22T07:21:35;24.70;;;11.73;;
68718;SDS011;55696;52.138;5.444;2023-07-22T07:24:02;25.00;;;11.55;;
68718;SDS011;55696;52.138;5.444;2023-07-22T07:26:29;26.08;;;11.77;;
68718;SDS011;55696;52.138;5.444;2023-07-22T07:28:55;24.55;;;12.02;;
68718;SDS011;55696;52.138;5.444;2023-07-22T07:31:22;26.17;;;11.50;;
68718;SDS011;55696;52.138;5.444;2023-07-22T07:33:49;22.33;;;11.13;;
68718;SDS011;55696;52.138;5.444;2023-07-22T07:36:16;26.05;;;11.48;;
68718;SDS011;55696;52.138;5.444;2023-07-22T07:38:43;27.40;;;11.65;;
68718;SDS011;55696;52.138;5.444;2023-07-22T07:41:10;29.40;;;11.50;;
68718;SDS011;55696;52.138;5.444;2023-07-22T07:43:41;22.45;;;11.25;;
68718;SDS011;55696;52.138;5.444;2023-07-22T07:46:11;23.30;;;10.90;;
68718;SDS011;55696;52.138;5.444;2023-07-22T07:48:44;25.15;;;11.32;;
68718;SDS011;55696;52.138;5.444;2023-07-22T07:51:16;27.80;;;11.48;;
68718;SDS011;55696;52.138;5.444;2023-07-22T07:53:44;21.60;;;10.60;;
68718;SDS011;55696;52.138;5.444;2023-07-22T07:56:15;19.50;;;9.88;;
68718;SDS011;55696;52.138;5.444;2023-07-22T07:58:44;20.13;;;10.10;;
68718;SDS011;55696;52.138;5.444;2023-07-22T08:01:11;19.55;;;9.70;;
68718;SDS011;55696;52.138;5.444;2023-07-22T08:03:39;21.65;;;10.02;;
68718;SDS011;55696;52.138;5.444;2023-07-22T08:06:10;24.10;;;9.98;;
68718;SDS011;55696;52.138;5.444;2023-07-22T08:08:38;18.35;;;9.98;;
68718;SDS011;55696;52.138;5.444;2023-07-22T08:11:06;20.10;;;9.67;;
68718;SDS011;55696;52.138;5.444;2023-07-22T08:13:35;17.88;;;9.05;;
68718;SDS011;55696;52.138;5.444;2023-07-22T08:16:03;24.40;;;9.70;;
68718;SDS011;55696;52.138;5.444;2023-07-22T08:18:31;16.25;;;7.40;;
68718;SDS011;55696;52.138;5.444;2023-07-22T08:20:59;16.77;;;8.50;;
68718;SDS011;55696;52.138;5.444;2023-07-22T08:23:28;16.43;;;9.07;;
68718;SDS011;55696;52.138;5.444;2023-07-22T08:25:56;24.55;;;9.20;;
68718;SDS011;55696;52.138;5.444;2023-07-22T08:28:23;21.13;;;9.07;;
68718;SDS011;55696;52.138;5.444;2023-07-22T08:30:50;19.55;;;8.88;;
68718;SDS011;55696;52.138;5.444;2023-07-22T08:33:21;17.77;;;8.63;;
68718;SDS011;55696;52.138;5.444;2023-07-22T08:36:06;16.87;;;8.00;;
68718;SDS011;55696;52.138;5.444;2023-07-22T08:38:33;19.33;;;7.90;;
68718;SDS011;55696;52.138;5.444;2023-07-22T08:41:00;14.43;;;7.03;;
68718;SDS011;55696;52.138;5.444;2023-07-22T08:43:27;15.85;;;7.35;;
68718;SDS011;55696;52.138;5.444;2023-07-22T08:45:55;17.77;;;8.18;;
68718;SDS011;55696;52.138;5.444;2023-07-22T08:48:27;17.43;;;8.03;;
68718;SDS011;55696;52.138;5.444;2023-07-22T08:51:01;14.98;;;7.03;;
68718;SDS011;55696;52.138;5.444;2023-07-22T08:53:41;17.67;;;7.40;;
68718;SDS011;55696;52.138;5.444;2023-07-22T08:56:13;17.77;;;7.05;;
68718;SDS011;55696;52.138;5.444;2023-07-22T08:58:41;16.50;;;7.93;;
68718;SDS011;55696;52.138;5.444;2023-07-22T09:01:09;16.37;;;7.40;;
68718;SDS011;55696;52.138;5.444;2023-07-22T09:03:37;16.42;;;7.30;;
68718;SDS011;55696;52.138;5.444;2023-07-22T09:06:07;15.98;;;7.78;;
68718;SDS011;55696;52.138;5.444;2023-07-22T09:08:33;14.18;;;6.38;;
68718;SDS011;55696;52.138;5.444;2023-07-22T09:11:01;15.27;;;7.47;;
68718;SDS011;55696;52.138;5.444;2023-07-22T09:13:28;10.43;;;5.27;;
68718;SDS011;55696;52.138;5.444;2023-07-22T09:15:57;10.65;;;5.50;;
68718;SDS011;55696;52.138;5.444;2023-07-22T09:18:25;17.75;;;6.40;;
68718;SDS011;55696;52.138;5.444;2023-07-22T09:20:52;10.50;;;5.47;;
68718;SDS011;55696;52.138;5.444;2023-07-22T09:23:31;12.13;;;5.25;;
68718;SDS011;55696;52.138;5.444;2023-07-22T09:26:11;11.63;;;4.90;;
68718;SDS011;55696;52.138;5.444;2023-07-22T09:28:53;11.00;;;5.05;;
68718;SDS011;55696;52.138;5.444;2023-07-22T09:31:22;13.25;;;5.22;;
68718;SDS011;55696;52.138;5.444;2023-07-22T09:33:54;11.23;;;4.50;;
68718;SDS011;55696;52.138;5.444;2023-07-22T09:36:44;12.57;;;4.75;;
68718;SDS011;55696;52.138;5.444;2023-07-22T09:39:16;11.33;;;4.30;;
68718;SDS011;55696;52.138;5.444;2023-07-22T09:41:43;11.23;;;4.78;;
68718;SDS011;55696;52.138;5.444;2023-07-22T09:44:10;9.65;;;4.63;;
68718;SDS011;55696;52.138;5.444;2023-07-22T09:46:38;12.80;;;5.70;;
68718;SDS011;55696;52.138;5.444;2023-07-22T09:49:09;10.10;;;4.95;;
68718;SDS011;55696;52.138;5.444;2023-07-22T09:51:38;8.53;;;4.50;;
68718;SDS011;55696;52.138;5.444;2023-07-22T09:54:26;9.10;;;4.43;;
68718;SDS011;55696;52.138;5.444;2023-07-22T09:56:55;13.57;;;5.45;;
68718;SDS011;55696;52.138;5.444;2023-07-22T09:59:22;9.80;;;4.35;;
68718;SDS011;55696;52.138;5.444;2023-07-22T10:01:49;11.50;;;5.22;;
68718;SDS011;55696;52.138;5.444;2023-07-22T10:04:18;12.47;;;4.37;;
68718;SDS011;55696;52.138;5.444;2023-07-22T10:06:50;8.55;;;4.60;;
68718;SDS011;55696;52.138;5.444;2023-07-22T10:09:17;12.10;;;5.55;;
68718;SDS011;55696;52.138;5.444;2023-07-22T10:11:47;12.20;;;4.55;;
68718;SDS011;55696;52.138;5.444;2023-07-22T10:14:14;10.88;;;4.93;;
68718;SDS011;55696;52.138;5.444;2023-07-22T10:16:41;10.83;;;4.30;;
68718;SDS011;55696;52.138;5.444;2023-07-22T10:19:08;9.38;;;4.32;;
68718;SDS011;55696;52.138;5.444;2023-07-22T10:21:38;10.10;;;4.18;;
68718;SDS011;55696;52.138;5.444;2023-07-22T10:24:05;9.35;;;4.22;;
68718;SDS011;55696;52.138;5.444;2023-07-22T10:26:33;14.63;;;6.18;;
68718;SDS011;55696;52.138;5.444;2023-07-22T10:29:13;8.97;;;4.20;;
68718;SDS011;55696;52.138;5.444;2023-07-22T10:31:40;10.85;;;4.22;;
68718;SDS011;55696;52.138;5.444;2023-07-22T10:34:07;9.73;;;4.35;;
68718;SDS011;55696;52.138;5.444;2023-07-22T10:36:34;11.15;;;5.40;;
68718;SDS011;55696;52.138;5.444;2023-07-22T10:39:02;9.77;;;4.90;;
68718;SDS011;55696;52.138;5.444;2023-07-22T10:41:31;15.40;;;5.40;;
68718;SDS011;55696;52.138;5.444;2023-07-22T10:43:59;10.85;;;4.38;;
68718;SDS011;55696;52.138;5.444;2023-07-22T10:46:31;8.88;;;3.65;;
68718;SDS011;55696;52.138;5.444;2023-07-22T10:49:09;8.05;;;3.50;;
68718;SDS011;55696;52.138;5.444;2023-07-22T10:51:38;10.00;;;4.00;;
68718;SDS011;55696;52.138;5.444;2023-07-22T10:54:14;6.53;;;3.20;;
68718;SDS011;55696;52.138;5.444;2023-07-22T10:56:56;9.07;;;3.30;;
68718;SDS011;55696;52.138;5.444;2023-07-22T10:59:26;9.73;;;4.30;;
68718;SDS011;55696;52.138;5.444;2023-07-22T11:01:54;7.90;;;3.42;;
68718;SDS011;55696;52.138;5.444;2023-07-22T11:04:21;13.00;;;3.70;;
68718;SDS011;55696;52.138;5.444;2023-07-22T11:07:28;6.90;;;3.37;;
68718;SDS011;55696;52.138;5.444;2023-07-22T11:10:16;8.00;;;3.72;;
68718;SDS011;55696;52.138;5.444;2023-07-22T11:12:45;7.47;;;2.95;;
68718;SDS011;55696;52.138;5.444;2023-07-22T11:15:14;7.35;;;2.88;;
68718;SDS011;55696;52.138;5.444;2023-07-22T11:17:42;4.90;;;2.65;;
68718;SDS011;55696;52.138;5.444;2023-07-22T11:20:09;6.70;;;2.90;;
68718;SDS011;55696;52.138;5.444;2023-07-22T11:22:39;5.18;;;3.20;;
68718;SDS011;55696;52.138;5.444;2023-07-22T11:25:07;5.30;;;3.28;;
68718;SDS011;55696;52.138;5.444;2023-07-22T11:27:34;8.38;;;3.65;;
68718;SDS011;55696;52.138;5.444;2023-07-22T11:30:02;8.75;;;3.40;;
68718;SDS011;55696;52.138;5.444;2023-07-22T11:32:31;9.00;;;3.70;;
68718;SDS011;55696;52.138;5.444;2023-07-22T11:34:58;7.72;;;3.38;;
68718;SDS011;55696;52.138;5.444;2023-07-22T11:37:27;7.53;;;3.13;;
68718;SDS011;55696;52.138;5.444;2023-07-22T11:39:59;6.70;;;3.30;;
68718;SDS011;55696;52.138;5.444;2023-07-22T11:42:27;7.75;;;3.47;;
68718;SDS011;55696;52.138;5.444;2023-07-22T11:44:54;8.20;;;3.73;;
68718;SDS011;55696;52.138;5.444;2023-07-22T11:47:28;7.60;;;3.60;;
68718;SDS011;55696;52.138;5.444;2023-07-22T11:49:56;9.52;;;3.08;;
68718;SDS011;55696;52.138;5.444;2023-07-22T11:52:24;8.02;;;3.05;;
68718;SDS011;55696;52.138;5.444;2023-07-22T11:54:51;6.28;;;3.22;;
68718;SDS011;55696;52.138;5.444;2023-07-22T11:57:20;8.43;;;3.17;;
68718;SDS011;55696;52.138;5.444;2023-07-22T11:59:54;6.28;;;2.97;;
68718;SDS011;55696;52.138;5.444;2023-07-22T12:02:27;10.23;;;3.35;;
68718;SDS011;55696;52.138;5.444;2023-07-22T12:05:00;8.90;;;3.22;;
68718;SDS011;55696;52.138;5.444;2023-07-22T12:07:32;7.70;;;2.80;;
68718;SDS011;55696;52.138;5.444;2023-07-22T12:10:01;11.33;;;2.83;;
68718;SDS011;55696;52.138;5.444;2023-07-22T12:15:09;7.88;;;3.15;;
68718;SDS011;55696;52.138;5.444;2023-07-22T12:17:53;6.97;;;3.10;;
68718;SDS011;55696;52.138;5.444;2023-07-22T12:20:26;5.30;;;2.70;;
68718;SDS011;55696;52.138;5.444;2023-07-22T12:22:58;7.30;;;2.90;;
68718;SDS011;55696;52.138;5.444;2023-07-22T12:25:26;6.53;;;3.00;;
68718;SDS011;55696;52.138;5.444;2023-07-22T12:27:53;8.75;;;3.53;;
68718;SDS011;55696;52.138;5.444;2023-07-22T12:30:20;6.43;;;3.33;;
68718;SDS011;55696;52.138;5.444;2023-07-22T12:32:47;11.63;;;3.25;;
68718;SDS011;55696;52.138;5.444;2023-07-22T12:35:15;8.37;;;3.20;;
68718;SDS011;55696;52.138;5.444;2023-07-22T12:37:42;7.70;;;3.42;;
68718;SDS011;55696;52.138;5.444;2023-07-22T12:40:09;5.85;;;2.95;;
68718;SDS011;55696;52.138;5.444;2023-07-22T12:42:38;6.32;;;2.88;;
68718;SDS011;55696;52.138;5.444;2023-07-22T12:45:05;11.90;;;3.63;;
68718;SDS011;55696;52.138;5.444;2023-07-22T12:47:34;7.23;;;3.13;;
68718;SDS011;55696;52.138;5.444;2023-07-22T12:50:00;6.20;;;2.80;;
68718;SDS011;55696;52.138;5.444;2023-07-22T12:52:27;6.78;;;3.03;;
68718;SDS011;55696;52.138;5.444;2023-07-22T12:54:54;7.57;;;3.00;;
68718;SDS011;55696;52.138;5.444;2023-07-22T12:57:21;7.75;;;3.10;;
68718;SDS011;55696;52.138;5.444;2023-07-22T12:59:48;7.97;;;3.30;;
68718;SDS011;55696;52.138;5.444;2023-07-22T13:02:16;9.98;;;3.65;;
68718;SDS011;55696;52.138;5.444;2023-07-22T13:04:43;6.93;;;3.58;;
68718;SDS011;55696;52.138;5.444;2023-07-22T13:07:10;6.82;;;3.15;;
68718;SDS011;55696;52.138;5.444;2023-07-22T13:09:37;16.30;;;4.28;;
68718;SDS011;55696;52.138;5.444;2023-07-22T13:12:04;9.73;;;4.17;;
68718;SDS011;55696;52.138;5.444;2023-07-22T13:14:32;8.68;;;3.92;;
68718;SDS011;55696;52.138;5.444;2023-07-22T13:16:58;7.30;;;4.07;;
68718;SDS011;55696;52.138;5.444;2023-07-22T13:19:25;8.57;;;4.88;;
68718;SDS011;55696;52.138;5.444;2023-07-22T13:21:52;8.68;;;4.53;;
68718;SDS011;55696;52.138;5.444;2023-07-22T13:24:20;11.00;;;4.20;;
68718;SDS011;55696;52.138;5.444;2023-07-22T13:26:47;9.15;;;4.30;;
68718;SDS011;55696;52.138;5.444;2023-07-22T13:29:14;9.07;;;5.20;;
68718;SDS011;55696;52.138;5.444;2023-07-22T13:31:41;11.18;;;4.30;;
68718;SDS011;55696;52.138;5.444;2023-07-22T13:34:08;10.15;;;5.18;;
68718;SDS011;55696;52.138;5.444;2023-07-22T13:36:35;10.13;;;4.60;;
68718;SDS011;55696;52.138;5.444;2023-07-22T13:39:02;9.27;;;3.80;;
68718;SDS011;55696;52.138;5.444;2023-07-22T13:41:29;8.95;;;4.05;;
68718;SDS011;55696;52.138;5.444;2023-07-22T13:43:56;11.60;;;3.70;;
68718;SDS011;55696;52.138;5.444;2023-07-22T13:46:23;10.68;;;3.85;;
68718;SDS011;55696;52.138;5.444;2023-07-22T13:48:50;6.07;;;3.10;;
68718;SDS011;55696;52.138;5.444;2023-07-22T13:51:17;6.75;;;2.80;;
68718;SDS011;55696;52.138;5.444;2023-07-22T13:53:43;7.57;;;3.55;;
68718;SDS011;55696;52.138;5.444;2023-07-22T13:56:10;6.45;;;2.63;;
68718;SDS011;55696;52.138;5.444;2023-07-22T13:58:37;7.55;;;2.80;;
68718;SDS011;55696;52.138;5.444;2023-07-22T14:01:04;6.33;;;2.70;;
68718;SDS011;55696;52.138;5.444;2023-07-22T14:03:31;5.00;;;2.30;;
68718;SDS011;55696;52.138;5.444;2023-07-22T14:05:58;5.22;;;2.75;;
68718;SDS011;55696;52.138;5.444;2023-07-22T14:08:24;5.78;;;2.67;;
68718;SDS011;55696;52.138;5.444;2023-07-22T14:10:51;9.00;;;2.80;;
68718;SDS011;55696;52.138;5.444;2023-07-22T14:13:19;4.40;;;2.20;;
68718;SDS011;55696;52.138;5.444;2023-07-22T14:15:45;6.20;;;2.03;;
68718;SDS011;55696;52.138;5.444;2023-07-22T14:18:12;8.07;;;2.72;;
68718;SDS011;55696;52.138;5.444;2023-07-22T14:20:43;9.88;;;2.53;;
68718;SDS011;55696;52.138;5.444;2023-07-22T14:23:11;5.75;;;2.53;;
68718;SDS011;55696;52.138;5.444;2023-07-22T14:25:39;12.90;;;2.00;;
68718;SDS011;55696;52.138;5.444;2023-07-22T14:28:05;8.35;;;2.58;;
68718;SDS011;55696;52.138;5.444;2023-07-22T14:30:32;9.45;;;2.88;;
68718;SDS011;55696;52.138;5.444;2023-07-22T14:32:59;6.28;;;2.28;;
68718;SDS011;55696;52.138;5.444;2023-07-22T14:35:26;5.65;;;2.67;;
68718;SDS011;55696;52.138;5.444;2023-07-22T14:37:53;6.20;;;2.50;;
68718;SDS011;55696;52.138;5.444;2023-07-22T14:40:19;5.35;;;2.10;;
68718;SDS011;55696;52.138;5.444;2023-07-22T14:42:46;4.93;;;2.13;;